Time;durP1;ratioP1;P1;durP2;ratioP2;P2;SDS_P1;SDS_P2;PMS_P1;PMS_P2;Temp;Humidity;BMP_temperature;BMP_pressure;BME280_temperature;BME280_humidity;BME280_pressure;Samples;Min_cycle;Max_cycle;Signal;HPM_P1;HPM_P2
2023/04/15 00:02:20;;;;;;;13.80;10.60;;;21.70;65.10;;;;;;222271;1263;22667;-44
2023/04/15 00:07:25;;;;;;;14.40;11.00;;;21.60;64.90;;;;;;222284;1261;22507;-44
2023/04/15 00:12:29;;;;;;;14.90;11.50;;;21.70;66.00;;;;;;222405;1262;22533;-44
2023/04/15 00:17:33;;;;;;;10.90;9.80;;;21.80;68.00;;;;;;222127;1259;23877;-45
2023/04/15 00:22:37;;;;;;;11.00;9.90;;;22.10;67.10;;;;;;222054;1266;22514;-44
2023/04/15 00:27:41;;;;;;;12.40;10.20;;;22.40;66.20;;;;;;222399;1263;22849;-44
2023/04/15 00:32:46;;;;;;;12.90;10.30;;;22.70;65.10;;;;;;222262;1260;22504;-45
2023/04/15 00:37:50;;;;;;;11.80;10.00;;;22.70;64.60;;;;;;222076;1254;24209;-43
2023/04/15 00:42:54;;;;;;;11.80;10.00;;;22.90;64.00;;;;;;222312;1266;23934;-42
2023/04/15 00:47:59;;;;;;;11.90;9.10;;;23.00;63.80;;;;;;222181;1261;22517;-44
2023/04/15 00:53:03;;;;;;;10.10;9.00;;;23.00;63.50;;;;;;222501;1265;24409;-43
2023/04/15 00:58:07;;;;;;;11.30;9.60;;;23.10;63.50;;;;;;222153;1253;22526;-46
2023/04/15 01:03:14;;;;;;;10.00;8.80;;;23.20;63.10;;;;;;222398;1258;23051;-44
2023/04/15 01:08:18;;;;;;;10.80;8.60;;;23.20;63.30;;;;;;222294;1253;22636;-44
2023/04/15 01:13:23;;;;;;;11.00;9.70;;;23.20;63.10;;;;;;221972;1267;24173;-43
2023/04/15 01:18:29;;;;;;;11.70;9.10;;;23.10;63.40;;;;;;222242;1259;25603;-43
2023/04/15 01:23:38;;;;;;;10.60;9.60;;;23.00;63.40;;;;;;222361;1261;23888;-44
2023/04/15 01:28:42;;;;;;;13.60;9.10;;;23.00;63.50;;;;;;222310;1263;24204;-43
2023/04/15 01:33:47;;;;;;;9.90;8.80;;;22.80;63.60;;;;;;222240;1261;22665;-45
2023/04/15 01:38:51;;;;;;;9.10;8.20;;;22.80;63.80;;;;;;222197;1259;23400;-43
2023/04/15 01:43:57;;;;;;;10.10;8.70;;;22.80;63.70;;;;;;222272;1263;24226;-44
2023/04/15 01:49:01;;;;;;;9.70;8.20;;;22.80;63.50;;;;;;222196;1264;24069;-44
2023/04/15 01:54:07;;;;;;;9.00;7.90;;;23.00;64.00;;;;;;222222;1264;22685;-44
2023/04/15 01:59:11;;;;;;;8.80;8.00;;;22.90;64.00;;;;;;222073;1253;22616;-43
2023/04/15 02:04:16;;;;;;;9.60;8.70;;;22.90;63.50;;;;;;222494;1263;22636;-45
2023/04/15 02:09:20;;;;;;;9.70;8.70;;;22.90;63.40;;;;;;222526;1264;23918;-44
2023/04/15 02:14:25;;;;;;;8.70;7.80;;;22.80;63.70;;;;;;221958;1260;22773;-45
2023/04/15 02:19:30;;;;;;;8.10;7.30;;;22.80;63.90;;;;;;222141;1266;24437;-45
2023/04/15 02:24:34;;;;;;;8.90;8.10;;;22.70;63.60;;;;;;222110;1265;22524;-43
2023/04/15 02:29:38;;;;;;;9.60;8.40;;;22.70;63.70;;;;;;222145;1264;22626;-44
2023/04/15 02:34:43;;;;;;;8.20;7.40;;;22.60;63.80;;;;;;222083;1257;22513;-47
2023/04/15 02:39:47;;;;;;;8.80;7.90;;;22.60;63.80;;;;;;222025;1263;24043;-44
2023/04/15 02:44:51;;;;;;;9.10;7.50;;;22.50;63.80;;;;;;222153;1257;22521;-43
2023/04/15 02:49:57;;;;;;;7.70;7.10;;;22.60;63.70;;;;;;221983;1259;22529;-46
2023/04/15 02:55:03;;;;;;;8.20;7.40;;;22.50;64.00;;;;;;222002;1256;22518;-47
2023/04/15 03:00:10;;;;;;;8.30;7.50;;;22.40;64.00;;;;;;222004;1263;22506;-48
2023/04/15 03:05:17;;;;;;;8.60;7.60;;;22.30;63.80;;;;;;222099;1263;22517;-43
2023/04/15 03:10:24;;;;;;;10.30;7.40;;;22.30;63.90;;;;;;222139;1263;22511;-45
2023/04/15 03:15:28;;;;;;;8.80;7.80;;;22.30;63.80;;;;;;221945;1263;22508;-44
2023/04/15 03:20:33;;;;;;;8.00;7.30;;;22.20;63.80;;;;;;222109;1269;25308;-45
2023/04/15 03:25:38;;;;;;;7.80;7.10;;;22.20;63.70;;;;;;222047;1263;22592;-45
2023/04/15 03:30:42;;;;;;;7.80;7.00;;;22.20;63.40;;;;;;221903;1269;24266;-44
2023/04/15 03:35:47;;;;;;;7.30;6.70;;;22.10;63.70;;;;;;222037;1259;24039;-44
2023/04/15 03:40:51;;;;;;;8.50;7.10;;;22.10;63.80;;;;;;222252;1263;22734;-42
2023/04/15 03:45:56;;;;;;;7.60;6.90;;;22.10;64.10;;;;;;222079;1258;25268;-45
2023/04/15 03:51:00;;;;;;;7.40;6.50;;;22.10;63.90;;;;;;222044;1269;23876;-44
2023/04/15 03:56:04;;;;;;;7.20;6.50;;;22.10;63.80;;;;;;222165;1254;22511;-43
2023/04/15 04:01:08;;;;;;;9.90;7.00;;;22.00;64.20;;;;;;221951;1266;25381;-42
2023/04/15 04:06:13;;;;;;;7.10;6.40;;;22.00;64.00;;;;;;222212;1263;22585;-42
2023/04/15 04:11:17;;;;;;;7.60;7.00;;;21.90;63.90;;;;;;222245;1266;22534;-42
2023/04/15 04:16:21;;;;;;;7.50;6.90;;;21.90;64.30;;;;;;221760;1249;25969;-43
2023/04/15 04:21:26;;;;;;;9.00;6.40;;;21.90;64.00;;;;;;221941;1263;22633;-45
2023/04/15 04:26:30;;;;;;;7.80;6.20;;;21.90;64.00;;;;;;222234;1266;25324;-45
2023/04/15 04:31:35;;;;;;;7.10;6.30;;;21.90;64.00;;;;;;222032;1263;25464;-43
2023/04/15 04:36:39;;;;;;;7.10;6.40;;;21.80;64.00;;;;;;222251;1263;25448;-44
2023/04/15 04:41:44;;;;;;;7.10;6.40;;;21.80;63.80;;;;;;222062;1263;22508;-44
2023/04/15 04:46:48;;;;;;;6.60;6.10;;;21.80;63.80;;;;;;222212;1263;22530;-46
2023/04/15 04:51:52;;;;;;;6.90;6.30;;;21.80;63.80;;;;;;221931;1259;25639;-44
2023/04/15 04:56:56;;;;;;;7.10;6.40;;;21.80;63.80;;;;;;222145;1266;25324;-45
2023/04/15 05:02:00;;;;;;;6.70;6.10;;;21.80;63.90;;;;;;221857;1266;23938;-42
2023/04/15 05:07:04;;;;;;;6.80;6.20;;;21.70;63.90;;;;;;222061;1264;24196;-46
2023/04/15 05:12:13;;;;;;;6.70;6.10;;;21.70;63.70;;;;;;221966;1263;22561;-43
2023/04/15 05:17:17;;;;;;;7.40;6.70;;;21.80;63.50;;;;;;222304;1260;22522;-48
2023/04/15 05:22:21;;;;;;;6.70;5.80;;;22.10;63.20;;;;;;222163;1249;24164;-44
2023/04/15 05:27:26;;;;;;;7.30;6.60;;;22.50;62.60;;;;;;222205;1263;22508;-45
2023/04/15 05:32:30;;;;;;;6.60;6.00;;;22.70;61.60;;;;;;222355;1263;22525;-44
2023/04/15 05:37:34;;;;;;;6.50;5.90;;;22.90;61.10;;;;;;222397;1264;22863;-43
2023/04/15 05:42:38;;;;;;;6.40;5.80;;;23.10;60.60;;;;;;222367;1248;22553;-42
2023/04/15 05:47:42;;;;;;;5.30;4.80;;;23.10;60.30;;;;;;222478;1269;24484;-47
2023/04/15 05:52:46;;;;;;;5.60;5.20;;;23.20;60.10;;;;;;222172;1266;24049;-44
2023/04/15 05:57:51;;;;;;;5.70;5.20;;;23.10;60.20;;;;;;222069;1267;24091;-44
2023/04/15 06:02:57;;;;;;;5.80;5.30;;;23.20;60.20;;;;;;222370;1262;23879;-44
2023/04/15 06:08:01;;;;;;;5.40;5.00;;;23.20;60.10;;;;;;222281;1266;22630;-44
2023/04/15 06:13:05;;;;;;;5.40;5.00;;;23.30;59.90;;;;;;222391;1263;22518;-46
2023/04/15 06:18:10;;;;;;;7.90;5.40;;;23.40;59.70;;;;;;222513;1266;23518;-51
2023/04/15 06:23:14;;;;;;;6.00;5.20;;;23.40;59.90;;;;;;222186;1263;22552;-54
2023/04/15 06:28:18;;;;;;;12.20;5.10;;;23.60;59.90;;;;;;222494;1263;206537;-55
2023/04/15 06:33:22;;;;;;;5.90;4.50;;;23.50;59.90;;;;;;222075;1266;22590;-54
2023/04/15 06:38:26;;;;;;;5.30;4.80;;;23.50;60.10;;;;;;222216;1266;23456;-53
2023/04/15 06:43:30;;;;;;;5.40;4.70;;;23.40;60.30;;;;;;222113;1266;23559;-55
2023/04/15 06:48:34;;;;;;;9.80;4.80;;;23.30;60.50;;;;;;222150;1267;22596;-53
2023/04/15 06:53:40;;;;;;;5.60;5.10;;;23.30;60.70;;;;;;222224;1266;22601;-54
2023/04/15 06:58:45;;;;;;;7.90;4.70;;;23.20;60.80;;;;;;222243;1263;22602;-56
2023/04/15 07:03:49;;;;;;;7.20;4.40;;;23.20;61.00;;;;;;222043;1266;22537;-54
2023/04/15 07:08:54;;;;;;;5.00;4.60;;;23.20;60.70;;;;;;221958;1266;22514;-57
2023/04/15 07:13:58;;;;;;;9.70;4.40;;;23.10;60.90;;;;;;222444;1263;24183;-48
2023/04/15 07:19:02;;;;;;;5.90;4.00;;;23.10;61.10;;;;;;222115;1260;23947;-49
2023/04/15 07:24:07;;;;;;;4.60;4.20;;;23.00;61.10;;;;;;222101;1260;22511;-49
2023/04/15 07:29:11;;;;;;;7.10;4.30;;;23.00;61.50;;;;;;222182;1257;22539;-51
2023/04/15 07:34:15;;;;;;;11.20;5.10;;;23.00;61.50;;;;;;222044;1254;24263;-53
2023/04/15 07:39:19;;;;;;;9.30;5.20;;;23.00;63.20;;;;;;222042;1259;25381;-51
2023/04/15 07:44:25;;;;;;;7.80;4.70;;;23.00;64.70;;;;;;222309;1269;22754;-50
2023/04/15 07:49:29;;;;;;;8.00;4.50;;;23.10;64.00;;;;;;222476;1262;22697;-47
2023/04/15 07:54:33;;;;;;;9.60;4.60;;;23.10;64.20;;;;;;222431;1254;22642;-46
2023/04/15 07:59:37;;;;;;;7.30;4.70;;;23.00;63.60;;;;;;222127;1254;24117;-44
2023/04/15 08:04:41;;;;;;;8.00;4.50;;;23.00;62.70;;;;;;222026;1264;24379;-47
2023/04/15 08:09:47;;;;;;;6.80;3.90;;;23.10;63.10;;;;;;222146;1255;24181;-46
2023/04/15 08:14:51;;;;;;;7.50;4.00;;;23.00;62.80;;;;;;222084;1264;22465;-46
2023/04/15 08:19:55;;;;;;;5.00;3.40;;;23.00;62.70;;;;;;222095;1260;25516;-46
2023/04/15 08:24:59;;;;;;;7.20;3.30;;;22.90;62.00;;;;;;222030;1259;24227;-48
2023/04/15 08:30:04;;;;;;;8.70;3.60;;;22.80;62.50;;;;;;222320;1256;22547;-47
2023/04/15 08:35:09;;;;;;;4.70;3.20;;;22.70;62.30;;;;;;222620;1264;25439;-48
2023/04/15 08:40:13;;;;;;;8.90;3.40;;;22.60;62.40;;;;;;222381;1267;22606;-46
2023/04/15 08:45:17;;;;;;;4.70;3.20;;;22.70;61.80;;;;;;222330;1269;22528;-46
2023/04/15 08:50:22;;;;;;;8.20;3.30;;;22.60;61.80;;;;;;222164;1267;22512;-49
2023/04/15 08:55:32;;;;;;;5.70;3.20;;;22.60;61.80;;;;;;222338;1264;22536;-45
2023/04/15 09:00:37;;;;;;;4.50;3.20;;;22.70;62.30;;;;;;221159;1258;22695;-46
2023/04/15 09:05:42;;;;;;;7.70;3.30;;;22.60;61.80;;;;;;221223;1261;25690;-46
2023/04/15 09:10:46;;;;;;;6.60;3.60;;;22.60;61.70;;;;;;221127;1260;22532;-46
2023/04/15 09:15:52;;;;;;;7.20;2.80;;;22.70;61.80;;;;;;221120;1261;22557;-47
2023/04/15 09:21:07;;;;;;;3.30;2.90;;;22.70;62.10;;;;;;221073;1270;22533;-45
2023/04/15 09:26:11;;;;;;;5.90;3.60;;;22.70;61.10;;;;;;222191;1264;22563;-47
2023/04/15 09:31:15;;;;;;;2.90;2.30;;;22.70;61.10;;;;;;222361;1260;22512;-50
2023/04/15 09:36:20;;;;;;;4.90;2.40;;;22.70;61.30;;;;;;222098;1266;23690;-46
2023/04/15 09:41:25;;;;;;;4.30;2.60;;;22.80;61.40;;;;;;223426;1267;22521;-50
2023/04/15 09:46:43;;;;;;;8.40;3.00;;;22.80;61.40;;;;;;222454;1264;22624;-46
2023/04/15 09:51:48;;;;;;;3.50;2.20;;;22.70;61.00;;;;;;222152;1246;24187;-47
2023/04/15 09:57:12;;;;;;;8.80;2.60;;;22.80;61.90;;;;;;222214;1250;22526;-47
2023/04/15 10:02:19;;;;;;;7.30;2.60;;;22.80;61.90;;;;;;222332;1264;22621;-53
2023/04/15 10:07:25;;;;;;;7.40;2.80;;;22.80;61.90;;;;;;222308;1254;22505;-49
2023/04/15 10:12:30;;;;;;;3.60;2.30;;;22.80;62.10;;;;;;222247;1255;22530;-50
2023/04/15 10:17:36;;;;;;;8.20;2.50;;;22.80;61.40;;;;;;222319;1254;22501;-48
2023/04/15 10:22:41;;;;;;;7.10;2.50;;;22.80;61.30;;;;;;222431;1253;22561;-49
2023/04/15 10:27:47;;;;;;;8.50;2.40;;;22.80;61.30;;;;;;222397;1263;22533;-49
2023/04/15 10:32:52;;;;;;;9.10;2.20;;;22.80;61.80;;;;;;222638;1254;22784;-47
2023/04/15 10:37:56;;;;;;;18.20;2.70;;;22.90;61.20;;;;;;222324;1264;24426;-52
2023/04/15 10:43:01;;;;;;;8.70;2.40;;;22.90;61.40;;;;;;222186;1264;23887;-49
2023/04/15 10:48:08;;;;;;;5.00;1.90;;;23.10;61.00;;;;;;222265;1257;22515;-47
2023/04/15 10:53:27;;;;;;;3.40;2.10;;;23.00;60.60;;;;;;222400;1254;22749;-50
2023/04/15 10:58:44;;;;;;;4.50;2.30;;;22.90;60.50;;;;;;222348;1259;25434;-49
2023/04/15 11:03:50;;;;;;;6.20;2.20;;;23.00;60.60;;;;;;222370;1257;22530;-47
2023/04/15 11:09:02;;;;;;;6.70;2.00;;;23.10;60.20;;;;;;222277;1256;24210;-47
2023/04/15 11:14:14;;;;;;;8.00;2.60;;;23.00;60.20;;;;;;221021;1260;22517;-49
2023/04/15 11:19:18;;;;;;;11.50;2.00;;;23.10;60.20;;;;;;220861;1271;22544;-47
2023/04/15 11:24:27;;;;;;;13.30;2.10;;;23.20;60.30;;;;;;220727;1272;22533;-51
2023/04/15 11:29:31;;;;;;;6.30;2.30;;;23.30;60.10;;;;;;221314;1269;22530;-47
2023/04/15 11:34:36;;;;;;;11.70;2.40;;;23.30;59.50;;;;;;222402;1254;22566;-45
2023/04/15 11:39:41;;;;;;;8.00;1.90;;;23.10;58.90;;;;;;230148;1264;22161;-46
2023/04/15 11:44:45;;;;;;;4.50;1.90;;;23.30;58.50;;;;;;229154;1256;24180;-46
2023/04/15 11:49:50;;;;;;;5.30;2.20;;;23.40;57.50;;;;;;222354;1254;22515;-45
2023/04/15 11:55:02;;;;;;;4.80;2.20;;;23.30;57.50;;;;;;222449;1263;24307;-45
2023/04/15 12:00:08;;;;;;;6.20;1.60;;;23.30;57.50;;;;;;222397;1263;22722;-45
2023/04/15 12:05:12;;;;;;;4.10;1.80;;;23.30;57.70;;;;;;222495;1263;25324;-47
2023/04/15 12:10:16;;;;;;;3.20;1.80;;;23.30;57.40;;;;;;222238;1254;24076;-44
2023/04/15 12:15:22;;;;;;;2.50;2.30;;;23.30;57.50;;;;;;221956;1254;22535;-44
2023/04/15 12:20:26;;;;;;;3.10;1.70;;;23.20;57.30;;;;;;222152;1253;22530;-43
2023/04/15 12:25:34;;;;;;;3.90;1.70;;;23.30;57.80;;;;;;222070;1263;23144;-48
2023/04/15 12:30:50;;;;;;;3.90;1.70;;;23.20;57.30;;;;;;222140;1261;22521;-43
2023/04/15 12:35:54;;;;;;;2.40;1.70;;;23.30;57.30;;;;;;222320;1254;26158;-45
2023/04/15 12:40:59;;;;;;;1.40;1.30;;;23.30;57.20;;;;;;222257;1263;22527;-43
2023/04/15 12:46:04;;;;;;;1.60;1.40;;;23.30;57.10;;;;;;222377;1256;24389;-44
2023/04/15 12:51:08;;;;;;;1.40;1.30;;;23.30;57.20;;;;;;222375;1254;24243;-42
2023/04/15 12:56:12;;;;;;;1.80;1.50;;;23.20;57.10;;;;;;222087;1259;24225;-47
2023/04/15 13:01:16;;;;;;;1.60;1.10;;;23.20;57.10;;;;;;222175;1268;22517;-45
2023/04/15 13:06:20;;;;;;;2.80;1.60;;;23.20;57.10;;;;;;222479;1263;22651;-44
2023/04/15 13:11:25;;;;;;;1.40;1.20;;;23.20;57.00;;;;;;222411;1254;22521;-44
2023/04/15 13:16:30;;;;;;;1.80;1.30;;;23.00;57.00;;;;;;222155;1267;22649;-44
2023/04/15 13:21:34;;;;;;;2.20;1.40;;;23.00;56.80;;;;;;222149;1266;22536;-44
2023/04/15 13:26:39;;;;;;;2.70;1.40;;;23.10;57.00;;;;;;222381;1263;22592;-44
2023/04/15 13:31:43;;;;;;;4.30;1.50;;;23.00;57.10;;;;;;222284;1250;24354;-45
2023/04/15 13:36:47;;;;;;;3.80;1.70;;;23.00;56.90;;;;;;222113;1256;22518;-46
2023/04/15 13:41:51;;;;;;;2.00;1.20;;;23.10;56.90;;;;;;222228;1247;22507;-49
2023/04/15 13:46:55;;;;;;;14.50;1.50;;;23.10;56.80;;;;;;222112;1256;22515;-47
2023/04/15 13:52:00;;;;;;;1.40;1.30;;;23.10;56.70;;;;;;222120;1256;24333;-45
2023/04/15 13:57:05;;;;;;;1.40;1.20;;;23.10;57.10;;;;;;222232;1256;24244;-47
2023/04/15 14:02:10;;;;;;;2.00;1.30;;;23.10;56.40;;;;;;222170;1263;24238;-45
2023/04/15 14:07:14;;;;;;;3.40;1.30;;;23.20;56.30;;;;;;222200;1256;22532;-48
2023/04/15 14:12:18;;;;;;;1.60;1.20;;;23.10;56.40;;;;;;222470;1261;22505;-46
2023/04/15 14:17:22;;;;;;;1.20;1.10;;;23.10;56.10;;;;;;222347;1261;22512;-49
2023/04/15 14:22:27;;;;;;;2.80;1.10;;;23.10;55.90;;;;;;222050;1254;22541;-45
2023/04/15 14:27:31;;;;;;;0.90;0.90;;;23.10;56.30;;;;;;222425;1253;22599;-45
2023/04/15 14:32:35;;;;;;;1.50;1.30;;;23.00;56.10;;;;;;222195;1266;25268;-46
2023/04/15 14:37:39;;;;;;;0.90;0.90;;;23.00;56.20;;;;;;222439;1256;22630;-45
2023/04/15 14:42:45;;;;;;;1.20;1.10;;;22.90;56.10;;;;;;222204;1263;22760;-46
2023/04/15 14:47:49;;;;;;;1.30;1.20;;;22.90;56.50;;;;;;222449;1262;24364;-45
2023/04/15 14:52:54;;;;;;;3.70;1.10;;;22.90;56.20;;;;;;222543;1266;22656;-43
2023/04/15 14:58:01;;;;;;;2.40;1.20;;;23.00;55.80;;;;;;222445;1253;24379;-46
2023/04/15 15:03:11;;;;;;;1.10;1.00;;;23.20;55.40;;;;;;222493;1263;22644;-45
2023/04/15 15:08:16;;;;;;;1.20;1.00;;;23.10;55.60;;;;;;222211;1263;24350;-42
2023/04/15 15:13:20;;;;;;;3.40;1.00;;;23.10;55.80;;;;;;222305;1254;23141;-45
2023/04/15 15:18:25;;;;;;;1.20;1.00;;;23.10;55.50;;;;;;222060;1263;24193;-47
2023/04/15 15:23:30;;;;;;;2.60;0.90;;;23.10;55.80;;;;;;222787;1262;25268;-44
2023/04/15 15:28:35;;;;;;;2.40;1.20;;;23.10;56.10;;;;;;222437;1263;24210;-45
2023/04/15 15:33:39;;;;;;;1.50;1.10;;;23.10;55.90;;;;;;222673;1254;24055;-44
2023/04/15 15:38:43;;;;;;;1.20;1.10;;;23.00;56.00;;;;;;222151;1253;22526;-44
2023/04/15 15:43:47;;;;;;;1.70;1.50;;;23.00;56.10;;;;;;222384;1263;24173;-46
2023/04/15 15:48:52;;;;;;;3.60;1.30;;;23.00;56.00;;;;;;222241;1265;22521;-48
2023/04/15 15:53:56;;;;;;;3.50;1.70;;;23.00;56.40;;;;;;222396;1269;22637;-47
2023/04/15 15:59:02;;;;;;;2.10;2.00;;;23.10;55.80;;;;;;222119;1265;22592;-49
2023/04/15 16:04:06;;;;;;;2.30;1.30;;;23.00;55.80;;;;;;222015;1256;25230;-45
2023/04/15 16:09:11;;;;;;;1.50;1.30;;;23.10;55.80;;;;;;222389;1266;25326;-48
2023/04/15 16:14:15;;;;;;;3.60;1.60;;;23.00;56.00;;;;;;222230;1263;22657;-49
2023/04/15 16:19:20;;;;;;;2.60;1.70;;;23.00;56.20;;;;;;222219;1263;22517;-47
2023/04/15 16:24:28;;;;;;;3.80;1.90;;;22.90;55.80;;;;;;222086;1246;22517;-48
2023/04/15 16:29:33;;;;;;;3.00;1.80;;;23.00;55.80;;;;;;222013;1263;22647;-47
2023/04/15 16:34:39;;;;;;;3.40;1.50;;;22.90;55.80;;;;;;221962;1256;25389;-46
2023/04/15 16:39:44;;;;;;;3.30;1.80;;;22.80;55.30;;;;;;222176;1263;24355;-47
2023/04/15 16:44:49;;;;;;;2.20;2.00;;;22.90;56.30;;;;;;222329;1264;22510;-46
2023/04/15 16:49:54;;;;;;;2.20;1.80;;;23.10;56.30;;;;;;222097;1254;25519;-47
2023/04/15 16:55:00;;;;;;;4.10;1.90;;;23.10;56.00;;;;;;222059;1263;23916;-45
2023/04/15 17:00:06;;;;;;;2.60;2.00;;;23.00;57.70;;;;;;222372;1267;22614;-48
2023/04/15 17:05:10;;;;;;;2.70;2.30;;;23.00;57.70;;;;;;222249;1254;22527;-45
2023/04/15 17:10:15;;;;;;;5.20;2.20;;;23.00;57.00;;;;;;221844;1263;22523;-49
2023/04/15 17:15:19;;;;;;;3.90;2.00;;;23.00;57.20;;;;;;222294;1256;25318;-48
2023/04/15 17:20:25;;;;;;;2.60;2.40;;;22.90;55.90;;;;;;222181;1261;22526;-49
2023/04/15 17:25:29;;;;;;;4.70;2.30;;;22.90;56.10;;;;;;222327;1261;22513;-50
2023/04/15 17:30:34;;;;;;;3.50;2.70;;;22.70;56.00;;;;;;222381;1253;24212;-47
2023/04/15 17:35:39;;;;;;;7.80;2.50;;;22.80;56.20;;;;;;222043;1256;22531;-47
2023/04/15 17:40:45;;;;;;;3.50;2.80;;;22.80;55.60;;;;;;222290;1263;25310;-48
2023/04/15 17:45:50;;;;;;;3.50;2.80;;;22.80;55.60;;;;;;222142;1266;22559;-48
2023/04/15 17:50:57;;;;;;;2.70;2.50;;;22.60;56.30;;;;;;222546;1253;24368;-48
2023/04/15 17:56:02;;;;;;;4.90;2.80;;;22.60;56.10;;;;;;222260;1266;22832;-46
2023/04/15 18:01:08;;;;;;;8.90;2.70;;;22.50;56.20;;;;;;224615;1253;22569;-47
2023/04/15 18:06:12;;;;;;;7.90;2.90;;;22.50;56.20;;;;;;222197;1263;24193;-49
2023/04/15 18:11:18;;;;;;;4.00;2.70;;;22.50;56.20;;;;;;222144;1263;24167;-47
2023/04/15 18:16:25;;;;;;;5.80;3.00;;;22.60;56.80;;;;;;222057;1247;24211;-48
2023/04/15 18:21:30;;;;;;;3.80;3.00;;;22.80;56.80;;;;;;222337;1266;22636;-52
2023/04/15 18:26:35;;;;;;;4.20;3.20;;;22.80;56.80;;;;;;222051;1256;167912;-50
2023/04/15 18:31:41;;;;;;;2.90;2.60;;;22.80;56.60;;;;;;221785;1262;25281;-47
2023/04/15 18:36:46;;;;;;;3.10;2.80;;;23.10;56.40;;;;;;222062;1262;24253;-48
2023/04/15 18:41:53;;;;;;;4.10;2.70;;;23.00;56.30;;;;;;222015;1263;22517;-49
2023/04/15 18:46:58;;;;;;;7.00;3.00;;;23.00;56.50;;;;;;221946;1266;24244;-48
2023/04/15 18:52:08;;;;;;;7.20;3.60;;;22.90;56.40;;;;;;222089;1263;23775;-46
2023/04/15 18:57:19;;;;;;;4.60;3.20;;;22.80;56.90;;;;;;221910;1259;22634;-47
2023/04/15 19:02:36;;;;;;;10.40;3.30;;;22.90;57.50;;;;;;221913;1264;22800;-49
2023/04/15 19:07:42;;;;;;;13.30;3.60;;;22.80;58.80;;;;;;222102;1267;25898;-48
2023/04/15 19:12:48;;;;;;;6.60;4.00;;;22.90;58.90;;;;;;222124;1253;24308;-46
2023/04/15 19:17:54;;;;;;;3.90;3.30;;;22.80;59.10;;;;;;221907;1266;22991;-47
2023/04/15 19:23:01;;;;;;;6.60;4.10;;;22.90;59.10;;;;;;222319;1266;22520;-47
2023/04/15 19:28:10;;;;;;;6.60;3.70;;;22.90;59.00;;;;;;222083;1263;22519;-46
2023/04/15 19:33:15;;;;;;;6.60;4.20;;;22.90;58.70;;;;;;222246;1261;22591;-47
2023/04/15 19:38:22;;;;;;;4.80;3.90;;;22.80;58.70;;;;;;221713;1265;25197;-48
2023/04/15 19:43:27;;;;;;;8.10;4.60;;;22.80;58.10;;;;;;221813;1257;22511;-49
2023/04/15 19:48:31;;;;;;;6.90;4.00;;;22.80;58.80;;;;;;221865;1264;24243;-48
2023/04/15 19:53:37;;;;;;;6.40;3.90;;;22.90;57.60;;;;;;221699;1259;25363;-46
2023/04/15 19:58:45;;;;;;;4.50;3.60;;;22.90;57.30;;;;;;221683;1264;22619;-45
2023/04/15 20:03:52;;;;;;;7.80;3.90;;;22.90;57.20;;;;;;221763;1269;22522;-47
2023/04/15 20:08:59;;;;;;;5.20;4.10;;;22.90;57.20;;;;;;222130;1254;24173;-46
2023/04/15 20:14:04;;;;;;;4.80;4.10;;;22.80;57.10;;;;;;221902;1263;22514;-44
2023/04/15 20:19:15;;;;;;;6.50;4.30;;;22.90;57.50;;;;;;221921;1262;22521;-47
2023/04/15 20:24:23;;;;;;;10.30;5.60;;;22.90;57.30;;;;;;220659;1272;26649;-48
2023/04/15 20:29:32;;;;;;;9.90;4.20;;;22.80;58.10;;;;;;220697;1262;22514;-46
2023/04/15 20:34:39;;;;;;;7.10;4.50;;;22.70;57.80;;;;;;220737;1258;27292;-46
2023/04/15 20:39:45;;;;;;;10.00;4.70;;;22.80;57.40;;;;;;220880;1271;24368;-48
2023/04/15 20:44:51;;;;;;;10.10;5.50;;;22.70;57.50;;;;;;220631;1263;25396;-48
2023/04/15 20:49:56;;;;;;;9.20;5.10;;;22.70;57.50;;;;;;220671;1271;25329;-58
2023/04/15 20:55:01;;;;;;;6.90;4.80;;;22.70;57.60;;;;;;221390;1263;22511;-61
2023/04/15 21:00:10;;;;;;;11.80;4.90;;;22.70;57.40;;;;;;222070;1263;23108;-57
2023/04/15 21:05:14;;;;;;;5.90;4.30;;;22.70;57.90;;;;;;221793;1263;22523;-58
2023/04/15 21:10:19;;;;;;;6.20;4.50;;;22.70;57.60;;;;;;222116;1263;22542;-58
2023/04/15 21:15:24;;;;;;;13.70;5.10;;;22.60;57.50;;;;;;222020;1247;22534;-57
2023/04/15 21:20:31;;;;;;;8.40;4.80;;;22.70;60.70;;;;;;222222;1263;22527;-57
2023/04/15 21:25:36;;;;;;;8.50;4.50;;;22.70;60.80;;;;;;222501;1261;22520;-57
2023/04/15 21:30:40;;;;;;;5.10;4.50;;;22.80;60.60;;;;;;221994;1254;22523;-57
2023/04/15 21:35:46;;;;;;;10.40;5.20;;;22.80;60.20;;;;;;222326;1263;22514;-60
2023/04/15 21:40:51;;;;;;;5.90;4.80;;;22.70;60.50;;;;;;222023;1260;24102;-60
2023/04/15 21:45:55;;;;;;;5.70;4.70;;;22.70;60.00;;;;;;222430;1263;24193;-57
2023/04/15 21:51:20;;;;;;;5.70;4.60;;;22.80;60.10;;;;;;222152;1261;22515;-56
2023/04/15 21:56:25;;;;;;;5.70;4.80;;;22.70;60.00;;;;;;222043;1254;22508;-57
2023/04/15 22:01:29;;;;;;;5.20;4.60;;;22.80;60.10;;;;;;222211;1261;22544;-53
2023/04/15 22:06:34;;;;;;;5.00;4.20;;;22.70;59.90;;;;;;222188;1260;24228;-58
2023/04/15 22:11:38;;;;;;;6.50;4.40;;;22.70;60.00;;;;;;222108;1264;25144;-57
2023/04/15 22:16:43;;;;;;;8.50;4.90;;;22.70;60.20;;;;;;222340;1260;24215;-57
2023/04/15 22:21:48;;;;;;;5.10;4.30;;;22.70;60.10;;;;;;222342;1266;22517;-57
2023/04/15 22:26:52;;;;;;;5.70;4.50;;;22.60;60.30;;;;;;222428;1263;22551;-54
2023/04/15 22:31:56;;;;;;;7.80;4.20;;;22.70;60.10;;;;;;222265;1260;23947;-57
2023/04/15 22:37:01;;;;;;;6.50;4.40;;;22.60;60.00;;;;;;222388;1263;22626;-60
2023/04/15 22:42:05;;;;;;;8.60;4.40;;;22.50;60.50;;;;;;222468;1247;25338;-54
2023/04/15 22:47:09;;;;;;;9.90;4.80;;;22.40;61.00;;;;;;222637;1254;25385;-53
2023/04/15 22:52:13;;;;;;;14.70;5.90;;;22.50;60.80;;;;;;221981;1254;24253;-45
2023/04/15 22:57:33;;;;;;;9.20;5.80;;;22.50;61.70;;;;;;222475;1251;22534;-45
2023/04/15 23:02:37;;;;;;;12.60;5.40;;;22.50;61.20;;;;;;222248;1266;22557;-45
2023/04/15 23:07:41;;;;;;;11.20;5.30;;;22.50;61.20;;;;;;222267;1260;22636;-45
2023/04/15 23:12:45;;;;;;;13.50;5.00;;;22.40;61.50;;;;;;222253;1266;25361;-48
2023/04/15 23:17:50;;;;;;;9.10;5.60;;;22.40;61.40;;;;;;222030;1260;24229;-45
2023/04/15 23:22:54;;;;;;;10.20;5.20;;;22.30;61.60;;;;;;221831;1260;22590;-44
2023/04/15 23:27:58;;;;;;;9.20;5.40;;;22.30;61.80;;;;;;222162;1261;22961;-45
2023/04/15 23:33:03;;;;;;;6.70;5.00;;;22.30;61.40;;;;;;221868;1268;22523;-44
2023/04/15 23:38:07;;;;;;;8.90;4.60;;;22.30;61.30;;;;;;222175;1253;23955;-45
2023/04/15 23:43:11;;;;;;;21.60;5.20;;;22.30;61.10;;;;;;222181;1261;22571;-45
2023/04/15 23:48:15;;;;;;;10.50;5.00;;;22.20;61.50;;;;;;222271;1253;22508;-44
2023/04/15 23:53:19;;;;;;;6.10;4.80;;;22.20;61.00;;;;;;221969;1247;23891;-44
2023/04/15 23:58:23;;;;;;;8.80;5.40;;;22.20;61.00;;;;;;222397;1250;22510;-49
